Time;durP1;ratioP1;P1;durP2;ratioP2;P2;SDS_P1;SDS_P2;PMS_P1;PMS_P2;Temp;Humidity;BMP_temperature;BMP_pressure;BME280_temperature;BME280_humidity;BME280_pressure;Samples;Min_cycle;Max_cycle;Signal;HPM_P1;HPM_P2
2021/10/12 00:00:37;;;;;;;5.88;5.18;;;;;;;11.21;77.97;94599.38;4995445;28;20040;-86
2021/10/12 00:03:02;;;;;;;6.28;4.55;;;;;;;11.10;78.25;94592.47;4997391;28;20029;-86
2021/10/12 00:05:28;;;;;;;4.88;4.47;;;;;;;11.02;78.77;94595.47;4981405;28;20037;-86
2021/10/12 00:08:00;;;;;;;5.85;4.88;;;;;;;11.08;78.82;94600.53;5027410;28;20034;-87
2021/10/12 00:10:25;;;;;;;10.65;5.22;;;;;;;11.14;78.65;94598.78;4978393;28;20026;-87
2021/10/12 00:12:51;;;;;;;6.53;4.82;;;;;;;11.20;79.11;94600.41;5012221;28;20567;-87
2021/10/12 00:15:17;;;;;;;10.93;5.75;;;;;;;11.21;78.00;94594.16;5028520;28;20041;-87
2021/10/12 00:17:42;;;;;;;5.05;4.65;;;;;;;11.25;77.49;94590.06;4974899;28;20096;-87
2021/10/12 00:20:08;;;;;;;5.88;4.75;;;;;;;11.29;77.52;94596.38;4990343;28;20404;-86
2021/10/12 00:22:34;;;;;;;6.22;4.90;;;;;;;11.32;77.14;94595.09;4990362;28;20034;-86
2021/10/12 00:25:00;;;;;;;4.60;4.20;;;;;;;11.32;77.02;94601.09;5012539;28;20090;-87
2021/10/12 00:27:25;;;;;;;4.38;4.00;;;;;;;11.37;77.18;94588.13;4993866;28;20038;-87
2021/10/12 00:29:51;;;;;;;11.23;5.40;;;;;;;11.41;76.84;94594.44;5029999;28;20045;-87
2021/10/12 00:32:17;;;;;;;9.20;4.13;;;;;;;11.45;76.62;94599.16;4977040;28;20034;-87
2021/10/12 00:34:42;;;;;;;4.00;3.70;;;;;;;11.41;75.80;94604.88;4978610;28;20056;-86
2021/10/12 00:37:20;;;;;;;4.28;3.58;;;;;;;11.43;76.25;94608.00;4979790;28;20039;-87
2021/10/12 00:39:45;;;;;;;6.35;4.43;;;;;;;11.36;76.30;94607.38;5013162;28;20030;-87
2021/10/12 00:42:37;;;;;;;3.80;3.45;;;;;;;11.33;76.10;94594.84;4991243;28;20044;-86
2021/10/12 00:45:04;;;;;;;3.17;2.72;;;;;;;11.37;76.19;94595.16;5006097;28;20135;-86
2021/10/12 00:47:29;;;;;;;3.13;2.92;;;;;;;11.32;76.31;94606.28;5057255;23;20054;-87
2021/10/12 00:49:55;;;;;;;3.90;3.03;;;;;;;11.33;75.82;94602.66;4996060;28;20045;-86
2021/10/12 00:52:23;;;;;;;3.47;3.17;;;;;;;11.34;76.45;94601.63;4969886;28;20046;-89
2021/10/12 00:54:48;;;;;;;5.68;3.72;;;;;;;11.34;76.33;94600.84;4959198;28;20486;-88
2021/10/12 00:57:14;;;;;;;3.47;3.15;;;;;;;11.36;76.44;94596.97;4972748;28;20038;-88
2021/10/12 00:59:40;;;;;;;2.88;2.63;;;;;;;11.38;76.48;94600.13;4978426;28;20589;-88
2021/10/12 01:02:06;;;;;;;2.72;2.53;;;;;;;11.42;75.33;94600.44;4986328;28;20054;-87
2021/10/12 01:04:31;;;;;;;3.72;2.40;;;;;;;11.43;75.74;94610.63;4970621;28;20053;-87
2021/10/12 01:06:57;;;;;;;3.40;2.55;;;;;;;11.48;75.79;94614.28;4968795;28;20042;-86
2021/10/12 01:09:22;;;;;;;5.00;2.55;;;;;;;11.48;75.46;94615.09;4969352;28;20049;-87
2021/10/12 01:11:48;;;;;;;2.30;2.17;;;;;;;11.51;75.81;94608.59;4989647;28;20482;-86
2021/10/12 01:14:13;;;;;;;6.60;2.92;;;;;;;11.52;75.47;94610.97;4969086;28;20542;-86
2021/10/12 01:16:38;;;;;;;2.50;2.30;;;;;;;11.54;75.69;94611.50;4986181;28;20030;-87
2021/10/12 01:19:08;;;;;;;6.75;2.47;;;;;;;11.54;75.27;94610.72;4987869;28;20035;-86
2021/10/12 01:21:58;;;;;;;5.63;2.45;;;;;;;11.53;75.49;94612.53;4987750;28;20487;-86
2021/10/12 01:24:24;;;;;;;2.50;2.30;;;;;;;11.56;74.99;94612.06;4988188;28;20046;-87
2021/10/12 01:27:14;;;;;;;2.35;2.25;;;;;;;11.60;74.79;94607.94;4987907;28;20038;-87
2021/10/12 01:29:39;;;;;;;2.67;2.47;;;;;;;11.55;74.32;94615.72;4988948;28;20030;-87
2021/10/12 01:32:05;;;;;;;3.80;1.95;;;;;;;11.52;73.87;94612.78;4988539;28;20046;-86
2021/10/12 01:34:30;;;;;;;7.07;2.10;;;;;;;11.39;73.21;94609.53;4971717;28;20046;-86
2021/10/12 01:36:56;;;;;;;2.10;2.00;;;;;;;11.29;72.72;94611.19;4986469;28;20235;-86
2021/10/12 01:39:21;;;;;;;2.40;1.85;;;;;;;11.18;73.20;94607.66;4989401;28;20349;-87
2021/10/12 01:41:47;;;;;;;2.05;1.95;;;;;;;11.12;73.30;94611.25;4972885;28;20046;-86
2021/10/12 01:44:14;;;;;;;1.80;1.70;;;;;;;10.98;72.47;94610.00;4990667;28;20061;-86
2021/10/12 01:46:40;;;;;;;1.75;1.65;;;;;;;10.74;72.97;94607.59;4972144;28;20031;-87
2021/10/12 01:49:06;;;;;;;1.77;1.67;;;;;;;10.55;72.91;94611.41;4974432;28;20051;-87
2021/10/12 01:51:31;;;;;;;2.00;1.90;;;;;;;10.39;73.72;94607.00;4976109;28;20397;-87
2021/10/12 01:53:57;;;;;;;4.22;2.05;;;;;;;10.26;74.06;94607.31;4971654;28;20034;-87
2021/10/12 01:56:22;;;;;;;1.95;1.85;;;;;;;10.14;74.52;94600.34;4970597;28;20121;-87
2021/10/12 01:58:50;;;;;;;1.90;1.80;;;;;;;10.10;74.22;94594.03;4970929;28;20075;-87
2021/10/12 02:01:23;;;;;;;1.75;1.70;;;;;;;10.06;74.40;94584.31;4985249;28;20494;-87
2021/10/12 02:03:52;;;;;;;2.00;1.90;;;;;;;9.95;75.33;94573.00;4981498;28;20035;-87
2021/10/12 02:06:17;;;;;;;2.13;2.03;;;;;;;9.89;76.05;94579.09;4976178;28;20109;-87
2021/10/12 02:09:08;;;;;;;3.50;2.25;;;;;;;9.87;75.84;94588.94;4973437;28;20114;-86
2021/10/12 02:11:34;;;;;;;2.28;2.17;;;;;;;9.85;75.93;94572.81;4971355;28;20061;-86
2021/10/12 02:13:59;;;;;;;2.08;1.90;;;;;;;9.71;75.78;94568.91;4971476;28;20031;-87
2021/10/12 02:16:25;;;;;;;1.70;1.65;;;;;;;9.62;76.14;94564.09;4957242;28;20073;-86
2021/10/12 02:18:50;;;;;;;2.10;2.00;;;;;;;9.57;76.04;94558.78;4984278;28;20081;-86
2021/10/12 02:21:16;;;;;;;4.18;2.00;;;;;;;9.53;76.44;94557.69;5000798;28;20039;-86
2021/10/12 02:24:06;;;;;;;2.05;1.90;;;;;;;9.59;76.06;94548.16;4977966;28;20097;-86
2021/10/12 02:26:32;;;;;;;1.80;1.70;;;;;;;9.55;76.92;94550.44;5269215;22;21273;-86
2021/10/12 02:28:57;;;;;;;7.03;1.92;;;;;;;9.57;76.79;94545.81;5012394;28;20045;-86
2021/10/12 02:31:23;;;;;;;4.75;1.83;;;;;;;9.60;76.79;94555.75;5011163;28;20046;-86
2021/10/12 02:33:48;;;;;;;1.80;1.70;;;;;;;9.66;77.10;94550.66;4963895;28;20494;-87
2021/10/12 02:36:14;;;;;;;2.17;2.08;;;;;;;9.70;76.35;94562.91;4961250;28;20127;-86
2021/10/12 02:38:40;;;;;;;2.63;2.15;;;;;;;9.70;76.92;94555.13;5010142;28;20040;-83
2021/10/12 02:41:06;;;;;;;2.05;1.88;;;;;;;9.73;76.64;94557.25;5000723;28;20023;-83
2021/10/12 02:43:31;;;;;;;3.97;2.33;;;;;;;9.77;75.82;94562.81;5007390;28;20057;-83
2021/10/12 02:45:56;;;;;;;1.70;1.60;;;;;;;9.71;76.37;94558.50;5007686;28;20249;-83
2021/10/12 02:48:22;;;;;;;2.10;2.00;;;;;;;9.67;76.38;94557.41;4971938;28;20085;-83
2021/10/12 02:50:48;;;;;;;1.83;1.73;;;;;;;9.65;75.86;94560.25;4973047;28;20573;-83
2021/10/12 02:53:14;;;;;;;3.55;2.00;;;;;;;9.69;75.68;94563.16;5006236;28;20034;-82
2021/10/12 02:55:40;;;;;;;5.50;2.25;;;;;;;9.70;76.37;94567.31;5007267;28;20038;-82
2021/10/12 02:58:05;;;;;;;2.05;1.95;;;;;;;9.79;76.20;94568.53;4954435;28;20391;-82
2021/10/12 03:03:12;;;;;;;2.28;2.08;;;;;;;9.85;75.96;94565.00;4995295;28;20427;-83
2021/10/12 03:05:42;;;;;;;11.35;3.70;;;;;;;9.88;75.37;94565.31;4996580;28;20042;-82
2021/10/12 03:08:08;;;;;;;5.18;4.45;;;;;;;9.90;75.97;94576.25;4984780;28;20077;-82
2021/10/12 03:10:33;;;;;;;6.97;4.55;;;;;;;9.90;75.36;94557.28;4983326;28;20038;-83
2021/10/12 03:12:59;;;;;;;4.15;3.85;;;;;;;9.90;75.13;94562.50;4995502;23;20092;-83
2021/10/12 03:15:24;;;;;;;3.80;3.50;;;;;;;9.96;75.90;94565.97;5015034;28;20036;-83
2021/10/12 03:17:50;;;;;;;4.70;4.25;;;;;;;9.96;75.22;94563.38;4999994;28;20049;-83
2021/10/12 03:20:40;;;;;;;9.85;4.63;;;;;;;9.91;76.03;94561.47;5144830;23;20064;-83
2021/10/12 03:23:26;;;;;;;5.45;2.67;;;;;;;9.88;75.74;94569.72;4985319;28;20104;-87
2021/10/12 03:25:52;;;;;;;5.43;2.67;;;;;;;9.85;75.54;94567.59;4988277;28;20055;-83
2021/10/12 03:28:17;;;;;;;3.10;2.90;;;;;;;9.83;75.39;94569.66;5001390;28;20059;-82
2021/10/12 03:30:44;;;;;;;3.70;3.20;;;;;;;9.82;75.54;94566.25;5047924;23;20041;31
2021/10/12 03:33:14;;;;;;;7.53;5.63;;;;;;;9.84;76.32;94563.44;4981318;28;20050;-82
2021/10/12 03:35:57;;;;;;;6.43;5.82;;;;;;;9.89;75.50;94560.91;4983471;28;20038;-82
2021/10/12 03:38:26;;;;;;;5.57;3.92;;;;;;;9.83;75.46;94551.47;5003378;28;20046;-84
2021/10/12 03:40:51;;;;;;;2.85;2.65;;;;;;;9.81;75.47;94558.72;5002987;28;20076;-84
2021/10/12 03:43:17;;;;;;;2.30;1.95;;;;;;;9.77;75.40;94553.19;5002143;28;20034;-83
2021/10/12 03:45:43;;;;;;;3.65;3.00;;;;;;;9.78;76.02;94565.16;4972050;28;20034;-80
2021/10/12 03:48:08;;;;;;;4.63;2.97;;;;;;;9.75;76.05;94562.22;5003607;28;20054;-83
2021/10/12 03:50:34;;;;;;;4.00;3.53;;;;;;;9.77;75.42;94568.00;5001761;28;20520;-80
2021/10/12 03:53:24;;;;;;;3.33;3.13;;;;;;;9.72;76.14;94554.91;5002429;28;20038;-76
2021/10/12 03:55:50;;;;;;;2.65;2.45;;;;;;;9.67;76.09;94552.22;5004086;28;21154;-81
2021/10/12 03:58:15;;;;;;;2.55;2.35;;;;;;;9.66;76.01;94559.22;4982206;28;20218;-80
2021/10/12 04:00:41;;;;;;;3.03;2.83;;;;;;;9.71;76.91;94558.50;5011562;28;20030;-80
2021/10/12 04:03:06;;;;;;;2.92;2.80;;;;;;;9.68;76.57;94564.19;5017506;28;20510;-83
2021/10/12 04:05:40;;;;;;;3.70;3.40;;;;;;;9.65;76.28;94562.06;5017540;28;20035;-83
2021/10/12 04:08:06;;;;;;;7.88;5.50;;;;;;;9.63;76.52;94559.69;5017124;28;20034;-83
2021/10/12 04:13:04;;;;;;;3.47;3.20;;;;;;;9.49;76.57;94556.56;5387170;23;20132;-82
2021/10/12 04:15:30;;;;;;;2.83;2.63;;;;;;;9.48;77.07;94554.22;4994863;28;20034;-83
2021/10/12 04:17:56;;;;;;;3.17;2.90;;;;;;;9.51;77.40;94557.13;5580704;23;20042;-82
2021/10/12 04:20:25;;;;;;;2.70;2.50;;;;;;;9.51;77.23;94554.53;5014818;28;20457;-82
2021/10/12 04:22:50;;;;;;;2.50;2.30;;;;;;;9.52;76.42;94544.94;4989492;28;20053;-82
2021/10/12 04:25:16;;;;;;;4.25;2.10;;;;;;;9.53;76.96;94549.88;4992550;28;20033;-83
2021/10/12 04:27:41;;;;;;;2.10;2.00;;;;;;;9.53;76.56;94551.69;4989618;28;20117;-83
2021/10/12 04:30:07;;;;;;;3.03;2.05;;;;;;;9.49;77.58;94550.59;4986802;28;20033;-82
2021/10/12 04:32:33;;;;;;;3.00;2.80;;;;;;;9.48;77.11;94557.59;4997544;28;20038;-85
2021/10/12 04:34:58;;;;;;;2.90;2.70;;;;;;;9.45;77.13;94555.47;4994434;28;20069;-85
2021/10/12 04:37:24;;;;;;;4.55;4.25;;;;;;;9.41;77.88;94549.13;5015641;28;20030;-84
2021/10/12 04:39:50;;;;;;;4.80;4.32;;;;;;;9.37;78.30;94555.81;5017744;28;20030;-80
2021/10/12 04:42:16;;;;;;;5.75;5.25;;;;;;;9.36;77.07;94541.25;5000366;28;20038;-82
2021/10/12 04:44:41;;;;;;;4.22;3.83;;;;;;;9.29;77.61;94540.63;5012222;28;20038;-82
2021/10/12 04:47:09;;;;;;;3.78;3.40;;;;;;;9.34;78.32;94543.31;5006563;28;20046;-85
2021/10/12 04:49:34;;;;;;;3.97;3.20;;;;;;;9.31;77.96;94547.16;5002593;28;20076;-83
2021/10/12 04:52:00;;;;;;;4.60;3.15;;;;;;;9.32;78.25;94550.53;4985394;28;20030;-83
2021/10/12 04:54:25;;;;;;;3.88;2.65;;;;;;;9.31;78.10;94544.56;5000676;28;20026;-84
2021/10/12 04:59:26;;;;;;;5.82;5.32;;;;;;;9.35;77.91;94544.88;5275396;23;20576;-84
2021/10/12 05:01:52;;;;;;;4.28;3.90;;;;;;;9.45;78.14;94546.88;5017545;28;20030;-84
2021/10/12 05:04:17;;;;;;;4.35;3.95;;;;;;;9.48;77.27;94549.81;4982194;28;20044;-84
2021/10/12 05:06:42;;;;;;;5.28;3.63;;;;;;;9.48;77.66;94546.44;5012962;28;20030;-84
2021/10/12 05:09:08;;;;;;;5.28;4.35;;;;;;;9.48;77.77;94544.63;5014407;28;20556;-84
2021/10/12 05:11:33;;;;;;;4.38;3.90;;;;;;;9.52;78.18;94550.91;5015885;28;20021;-83
2021/10/12 05:14:01;;;;;;;3.20;2.90;;;;;;;9.47;77.53;94540.44;5014385;28;20088;-83
2021/10/12 05:16:30;;;;;;;9.25;4.45;;;;;;;9.48;77.95;94555.00;5013931;28;20042;-83
2021/10/12 05:18:58;;;;;;;6.50;5.30;;;;;;;9.49;78.03;94550.59;5016228;28;20093;-84
2021/10/12 05:21:24;;;;;;;7.03;5.55;;;;;;;9.51;77.27;94549.34;5017753;28;20041;-84
2021/10/12 05:23:49;;;;;;;9.73;7.60;;;;;;;9.49;77.99;94548.78;5015160;28;20041;-84
2021/10/12 05:26:15;;;;;;;8.95;6.65;;;;;;;9.46;78.02;94551.84;5015420;28;20096;-83
2021/10/12 05:28:43;;;;;;;8.73;5.80;;;;;;;9.43;77.12;94547.09;5013479;28;20029;-83
2021/10/12 05:31:09;;;;;;;7.13;5.70;;;;;;;9.42;78.19;94553.31;5014551;28;20034;-83
2021/10/12 05:33:34;;;;;;;12.80;9.68;;;;;;;9.44;77.72;94551.28;5015303;28;20025;-83
2021/10/12 05:36:00;;;;;;;5.10;4.60;;;;;;;9.48;77.48;94560.19;5014281;28;20064;-84
2021/10/12 05:38:32;;;;;;;14.35;9.70;;;;;;;9.53;77.60;94555.09;5015369;28;20102;-83
2021/10/12 05:40:57;;;;;;;19.73;14.23;;;;;;;9.55;77.65;94560.81;5013759;28;20091;-84
2021/10/12 05:43:22;;;;;;;13.75;11.95;;;;;;;9.59;77.41;94567.13;5015761;28;20505;-84
2021/10/12 05:45:50;;;;;;;24.20;16.88;;;;;;;9.59;77.17;94563.75;5015528;28;20457;-84
2021/10/12 05:48:18;;;;;;;14.45;10.82;;;;;;;9.62;76.95;94561.50;5014579;28;20564;-84
2021/10/12 05:50:46;;;;;;;9.27;8.20;;;;;;;9.59;77.26;94556.75;4999569;28;20026;-84
2021/10/12 05:58:25;;;;;;;5.88;4.95;;;;;;;9.58;77.32;94565.56;5025360;28;20560;-84
2021/10/12 06:00:50;;;;;;;12.65;7.50;;;;;;;9.61;77.38;94569.53;5018137;28;20030;-84
2021/10/12 06:03:16;;;;;;;11.25;7.13;;;;;;;9.57;77.72;94563.97;5017496;28;20045;-84
2021/10/12 06:05:41;;;;;;;13.93;10.63;;;;;;;9.63;77.65;94560.47;5014980;28;20030;-84
2021/10/12 06:08:30;;;;;;;10.30;5.50;;;;;;;9.62;77.27;94561.50;5001616;28;20425;-84
2021/10/12 06:10:58;;;;;;;4.90;4.40;;;;;;;9.62;77.51;94561.50;5017047;28;20041;-84
2021/10/12 06:13:23;;;;;;;7.80;5.13;;;;;;;9.68;77.44;94564.19;5017338;28;20529;-84
2021/10/12 06:15:49;;;;;;;7.95;5.80;;;;;;;9.70;76.90;94564.72;4996615;28;20038;-84
2021/10/12 06:18:14;;;;;;;7.38;6.20;;;;;;;9.71;77.37;94559.31;4997368;28;20417;-84
2021/10/12 06:20:40;;;;;;;8.52;6.57;;;;;;;9.71;77.08;94569.69;4987781;28;20474;-84
2021/10/12 06:23:06;;;;;;;15.18;8.60;;;;;;;9.73;77.36;94561.66;4989105;28;20034;-84
2021/10/12 06:25:31;;;;;;;9.13;7.57;;;;;;;9.75;76.74;94570.00;5013422;28;20033;-84
2021/10/12 06:27:57;;;;;;;8.73;7.25;;;;;;;9.72;76.80;94566.06;4973087;28;20137;-84
2021/10/12 06:30:22;;;;;;;9.38;8.05;;;;;;;9.72;77.11;94566.06;4987206;28;20030;-83
2021/10/12 06:32:48;;;;;;;7.35;6.65;;;;;;;9.75;76.55;94560.41;5014658;28;20460;-84
2021/10/12 06:35:19;;;;;;;9.60;6.18;;;;;;;9.76;76.45;94571.59;5014306;28;20123;-84
2021/10/12 06:37:45;;;;;;;8.20;6.20;;;;;;;9.78;76.96;94579.97;5001054;28;20041;-83
2021/10/12 06:40:11;;;;;;;5.95;5.35;;;;;;;9.75;76.21;94576.00;4988874;28;20037;-84
2021/10/12 06:42:39;;;;;;;24.23;15.45;;;;;;;9.70;77.13;94580.31;5014569;28;20096;-84
2021/10/12 06:45:04;;;;;;;18.27;11.75;;;;;;;9.72;77.28;94583.47;5016445;28;20032;-82
2021/10/12 06:47:30;;;;;;;16.08;12.63;;;;;;;9.74;76.99;94584.00;5012977;28;20478;-85
2021/10/12 06:50:03;;;;;;;13.38;9.50;;;;;;;9.76;76.83;94577.59;5012924;28;20041;-82
2021/10/12 06:55:04;;;;;;;10.93;6.35;;;;;;;9.67;77.11;94583.38;4945427;29;20052;-84
2021/10/12 06:57:29;;;;;;;9.25;7.13;;;;;;;9.68;77.72;94583.13;5002621;23;20419;-82
2021/10/12 06:59:54;;;;;;;15.95;10.63;;;;;;;9.69;76.99;94581.34;4993608;28;20030;-82
2021/10/12 07:02:20;;;;;;;18.50;12.13;;;;;;;9.75;77.38;94580.38;5001051;28;20065;-84
2021/10/12 07:04:45;;;;;;;13.52;9.77;;;;;;;9.74;77.06;94592.59;4985675;28;20030;-82
2021/10/12 07:07:11;;;;;;;12.80;9.05;;;;;;;9.74;76.85;94597.00;4967467;28;20048;-82
2021/10/12 07:09:36;;;;;;;16.48;10.40;;;;;;;9.76;77.61;94592.34;4966855;28;20089;-83
2021/10/12 07:12:02;;;;;;;17.38;11.00;;;;;;;9.72;77.02;94586.84;4983296;28;20030;-83
2021/10/12 07:14:28;;;;;;;15.73;10.10;;;;;;;9.75;77.07;94588.19;4988405;28;20037;-83
2021/10/12 07:16:53;;;;;;;11.98;8.10;;;;;;;9.78;76.79;94590.34;4982658;28;20503;-83
2021/10/12 07:19:19;;;;;;;19.42;10.68;;;;;;;9.76;76.72;94593.16;4984701;28;20044;-82
2021/10/12 07:21:45;;;;;;;12.82;10.15;;;;;;;9.75;76.27;94595.97;4984602;28;20065;-83
2021/10/12 07:24:11;;;;;;;16.63;10.85;;;;;;;9.72;76.82;94596.44;4982063;28;20145;-83
2021/10/12 07:26:36;;;;;;;13.35;8.77;;;;;;;9.72;77.37;94596.44;4982063;28;20039;-83
2021/10/12 07:29:02;;;;;;;19.95;10.75;;;;;;;9.75;76.78;94595.97;4984102;28;20034;-83
2021/10/12 07:31:27;;;;;;;13.68;8.13;;;;;;;9.74;76.94;94591.81;4982440;28;20034;-83
2021/10/12 07:33:53;;;;;;;22.60;10.57;;;;;;;9.77;76.60;94599.94;4982641;28;20033;-84
2021/10/12 07:36:18;;;;;;;8.95;6.90;;;;;;;9.82;76.47;94594.03;4984200;28;20046;-83
2021/10/12 07:38:44;;;;;;;13.05;8.45;;;;;;;9.84;76.42;94589.41;4947333;28;20527;-84
2021/10/12 07:41:09;;;;;;;11.98;8.70;;;;;;;9.86;76.90;94597.75;4982102;28;20034;-84
2021/10/12 07:43:35;;;;;;;12.93;9.38;;;;;;;9.89;76.48;94592.88;4982481;28;20272;-84
2021/10/12 07:46:00;;;;;;;13.00;8.43;;;;;;;9.93;76.64;94593.22;4982012;28;20034;-84
2021/10/12 07:48:28;;;;;;;9.60;7.18;;;;;;;9.90;75.75;94583.28;4984406;28;20108;-84
2021/10/12 07:50:53;;;;;;;9.27;6.57;;;;;;;9.92;75.79;94587.22;4980647;28;20031;-84
2021/10/12 07:53:19;;;;;;;6.15;5.53;;;;;;;9.89;76.24;94594.69;4982621;28;20026;-84
2021/10/12 07:55:59;;;;;;;12.20;8.40;;;;;;;9.89;75.95;94594.69;4982913;28;20038;-84
2021/10/12 07:58:25;;;;;;;8.23;6.50;;;;;;;9.89;76.61;94587.69;4981876;28;20037;-84
2021/10/12 08:00:50;;;;;;;5.63;4.40;;;;;;;9.90;75.82;94583.28;4965378;28;20031;-84
2021/10/12 08:03:17;;;;;;;8.55;6.75;;;;;;;9.91;76.16;94592.63;4982479;28;20062;-83
2021/10/12 08:05:42;;;;;;;8.30;6.65;;;;;;;9.91;76.22;94582.25;4981421;28;20035;-84
2021/10/12 08:08:08;;;;;;;9.45;7.28;;;;;;;10.01;76.18;94585.03;4966417;28;20117;-84
2021/10/12 08:10:34;;;;;;;9.77;7.22;;;;;;;10.07;75.97;94584.09;4949338;28;20037;-84
2021/10/12 08:13:03;;;;;;;9.75;7.35;;;;;;;10.10;75.63;94586.25;4983516;28;20035;-84
2021/10/12 08:15:29;;;;;;;9.77;6.82;;;;;;;10.16;76.12;94590.50;4981395;28;20495;-84
2021/10/12 08:17:54;;;;;;;15.25;8.57;;;;;;;10.28;75.26;94584.47;4965459;28;20037;-84
2021/10/12 08:20:20;;;;;;;13.35;10.02;;;;;;;10.33;76.16;94587.16;4966237;28;20517;-83
2021/10/12 08:22:48;;;;;;;19.48;15.25;;;;;;;10.43;75.67;94587.34;4989932;28;20026;-84
2021/10/12 08:25:14;;;;;;;19.10;15.57;;;;;;;10.52;75.33;94588.50;4967208;28;20034;-83
2021/10/12 08:27:39;;;;;;;31.13;20.67;;;;;;;10.63;75.54;94586.84;4948596;28;20129;-84
2021/10/12 08:30:07;;;;;;;17.70;12.75;;;;;;;10.70;75.32;94574.47;4984465;28;20035;-84
2021/10/12 08:32:33;;;;;;;25.95;15.07;;;;;;;10.79;74.50;94565.25;4982428;28;20210;-84
2021/10/12 08:34:58;;;;;;;15.18;9.88;;;;;;;10.80;74.91;94561.63;4947414;28;20039;-84
2021/10/12 08:37:24;;;;;;;6.20;5.10;;;;;;;10.91;74.56;94562.56;4980631;28;20098;-84
2021/10/12 08:39:49;;;;;;;5.25;4.75;;;;;;;10.97;73.91;94575.38;4985037;28;20054;-84
2021/10/12 08:42:34;;;;;;;5.40;3.03;;;;;;;10.93;73.93;94570.91;4985775;28;20441;-84
2021/10/12 08:45:05;;;;;;;7.93;4.60;;;;;;;10.94;74.39;94573.28;4986870;28;20133;-84
2021/10/12 08:47:31;;;;;;;9.70;6.47;;;;;;;10.97;74.40;94582.41;4968472;28;20556;-84
2021/10/12 08:49:57;;;;;;;4.93;4.43;;;;;;;11.00;73.62;94584.53;4957551;28;20038;-84
2021/10/12 08:52:22;;;;;;;6.43;5.32;;;;;;;10.98;74.20;94579.56;4976886;28;20554;-83
2021/10/12 08:54:49;;;;;;;19.02;12.57;;;;;;;11.02;74.22;94585.06;4964792;28;20034;-84
2021/10/12 08:57:33;;;;;;;9.18;7.40;;;;;;;10.98;74.33;94578.78;4980132;28;20058;-83
2021/10/12 09:00:10;;;;;;;6.57;4.85;;;;;;;10.93;74.00;94570.91;5007483;28;20035;-84
2021/10/12 09:02:54;;;;;;;8.23;6.57;;;;;;;11.00;74.34;94574.13;4972751;28;20041;-83
2021/10/12 09:05:24;;;;;;;18.80;14.82;;;;;;;10.99;74.32;94569.94;5001979;28;20034;-84
2021/10/12 09:07:50;;;;;;;22.90;18.35;;;;;;;11.07;74.56;94572.16;4987357;28;20130;-85
2021/10/12 09:10:22;;;;;;;35.80;28.73;;;;;;;11.06;74.33;94568.75;4972766;28;20067;-84
2021/10/12 09:12:53;;;;;;;21.35;13.98;;;;;;;11.13;73.40;94571.19;4953298;28;20100;-85
2021/10/12 09:15:18;;;;;;;20.02;12.05;;;;;;;11.14;73.19;94564.94;4986016;28;20031;-83
2021/10/12 09:17:49;;;;;;;28.90;20.52;;;;;;;11.17;73.93;94559.25;4970808;28;20039;-84
2021/10/12 09:20:15;;;;;;;64.72;45.88;;;;;;;11.25;72.96;94561.44;4985724;28;20443;-84
2021/10/12 09:22:40;;;;;;;62.65;39.78;;;;;;;11.27;73.06;94556.00;4987954;28;20038;-84
2021/10/12 09:25:13;;;;;;;10.68;7.55;;;;;;;11.22;72.76;94556.69;4954104;28;20104;-84
2021/10/12 09:27:56;;;;;;;9.38;6.65;;;;;;;11.17;73.15;94550.66;4970521;28;20035;-83
2021/10/12 09:30:29;;;;;;;4.93;4.45;;;;;;;11.07;72.81;94544.31;4985567;28;20039;-84
2021/10/12 09:33:03;;;;;;;4.13;2.38;;;;;;;10.99;73.01;94543.94;4969134;28;20035;-85
2021/10/12 09:35:29;;;;;;;4.55;4.00;;;;;;;11.00;73.67;94545.50;4984103;28;20031;-84
2021/10/12 09:38:02;;;;;;;4.85;3.10;;;;;;;11.03;74.05;94542.41;4984983;28;20031;-83
2021/10/12 09:40:28;;;;;;;8.40;4.30;;;;;;;11.05;73.75;94545.56;4985189;28;20093;-84
2021/10/12 09:42:53;;;;;;;6.80;4.30;;;;;;;11.09;73.95;94541.47;4953190;28;20042;-84
2021/10/12 09:45:19;;;;;;;18.55;10.00;;;;;;;11.09;73.43;94539.66;4985229;28;20136;-84
2021/10/12 09:47:50;;;;;;;8.50;5.72;;;;;;;11.08;73.50;94545.09;4969430;28;20047;-84
2021/10/12 09:50:15;;;;;;;8.63;4.55;;;;;;;10.99;73.71;94541.31;4966217;28;20182;-84
2021/10/12 09:52:47;;;;;;;5.53;4.68;;;;;;;11.00;73.72;94537.69;4987025;28;20049;-84
2021/10/12 09:55:13;;;;;;;10.47;4.53;;;;;;;10.99;73.90;94543.94;4997839;28;20022;-84
2021/10/12 09:57:40;;;;;;;6.95;6.13;;;;;;;11.00;73.47;94537.69;5302716;23;20124;-82
2021/10/12 10:00:06;;;;;;;6.95;6.30;;;;;;;11.05;73.51;94535.16;5023794;28;20038;-83
2021/10/12 10:02:31;;;;;;;5.47;4.97;;;;;;;11.03;73.31;94537.19;4976294;28;20034;-82
2021/10/12 10:04:57;;;;;;;6.25;4.72;;;;;;;10.98;72.53;94531.94;5002598;28;20085;-82
2021/10/12 10:07:25;;;;;;;11.50;6.95;;;;;;;10.95;73.52;94532.44;4972371;28;20588;-84
2021/10/12 10:09:56;;;;;;;13.27;8.00;;;;;;;10.85;73.86;94532.28;5003824;28;20613;-84
2021/10/12 10:12:21;;;;;;;7.00;5.28;;;;;;;10.81;74.04;94527.56;4971348;28;20118;-84
2021/10/12 10:14:47;;;;;;;10.85;7.30;;;;;;;10.87;74.29;94528.41;5003804;28;20098;-84
2021/10/12 10:17:31;;;;;;;11.77;8.80;;;;;;;10.88;73.86;94531.81;4969215;28;20026;-84
2021/10/12 10:19:56;;;;;;;16.15;9.90;;;;;;;10.87;74.05;94530.22;5005637;28;20518;-84
2021/10/12 10:22:55;;;;;;;28.38;17.15;;;;;;;10.86;74.51;94534.66;4971020;28;20046;-84
2021/10/12 10:25:29;;;;;;;26.15;17.65;;;;;;;10.85;74.39;94527.88;5004054;28;20041;-83
2021/10/12 10:27:58;;;;;;;35.42;26.00;;;;;;;10.85;74.28;94522.66;5005326;28;20037;-83
2021/10/12 10:30:33;;;;;;;28.38;22.00;;;;;;;10.86;73.80;94523.44;5011722;28;20061;-83
2021/10/12 10:33:04;;;;;;;22.90;18.42;;;;;;;10.84;74.03;94521.09;5020638;28;20030;-83
2021/10/12 10:35:33;;;;;;;19.88;15.65;;;;;;;10.87;74.25;94519.81;4994091;28;20030;-84
2021/10/12 10:38:20;;;;;;;20.33;16.65;;;;;;;10.87;74.46;94512.03;5004564;28;20470;-83
2021/10/12 10:41:03;;;;;;;20.40;15.25;;;;;;;10.90;74.20;94506.31;5004792;28;20042;-84
2021/10/12 10:43:54;;;;;;;7.53;6.05;;;;;;;10.93;73.85;94508.47;5001401;28;20037;-84
2021/10/12 10:46:31;;;;;;;8.63;6.47;;;;;;;10.89;74.05;94508.16;5018860;28;20434;-84
2021/10/12 10:49:24;;;;;;;7.90;4.57;;;;;;;10.88;74.19;94500.59;5003050;28;20088;-83
2021/10/12 10:51:50;;;;;;;10.27;3.58;;;;;;;10.88;73.82;94500.59;5002140;28;20049;-83
2021/10/12 10:54:43;;;;;;;7.95;6.00;;;;;;;10.96;74.55;94508.00;5003022;28;20042;-84
2021/10/12 10:57:16;;;;;;;5.35;4.85;;;;;;;11.03;74.10;94498.19;5003932;28;20112;-84
2021/10/12 10:59:41;;;;;;;;;;;;;;;11.06;73.99;94493.31;5001642;28;20494;-84
2021/10/12 11:02:25;;;;;;;8.50;3.75;;;;;;;11.08;73.37;94487.84;4988296;28;19925;-84
2021/10/12 11:04:51;;;;;;;5.20;4.03;;;;;;;11.10;74.34;94488.38;5000593;28;20601;-84
2021/10/12 11:07:20;;;;;;;8.73;6.03;;;;;;;11.14;73.98;94492.06;4987002;28;20042;-84
2021/10/12 11:09:45;;;;;;;12.15;6.38;;;;;;;11.21;73.18;94486.69;5004109;28;20128;-84
2021/10/12 11:12:39;;;;;;;9.57;7.80;;;;;;;11.22;74.28;94486.44;5644584;23;20043;-83
2021/10/12 11:15:06;;;;;;;4.45;4.00;;;;;;;11.19;73.08;94486.91;4992249;28;20050;-84
2021/10/12 11:17:31;;;;;;;4.25;3.95;;;;;;;11.25;73.48;94485.97;4985577;28;20072;-84
2021/10/12 11:20:01;;;;;;;3.70;3.03;;;;;;;11.34;72.44;94483.69;4967308;28;20030;-83
2021/10/12 11:22:27;;;;;;;6.97;3.08;;;;;;;11.36;72.66;94482.44;4967224;28;20046;-84
2021/10/12 11:24:53;;;;;;;10.48;6.50;;;;;;;11.38;72.91;94479.56;4966820;28;20038;-83
2021/10/12 11:27:19;;;;;;;13.15;4.95;;;;;;;11.33;72.70;94476.94;4982448;28;20039;-83
2021/10/12 11:29:44;;;;;;;5.45;4.43;;;;;;;11.32;72.69;94476.13;4965342;28;20454;-84
2021/10/12 11:32:12;;;;;;;5.03;4.38;;;;;;;11.32;72.96;94476.13;4982691;28;20043;-84
2021/10/12 11:34:38;;;;;;;4.43;3.70;;;;;;;11.39;73.69;94476.75;4984144;28;20042;-84
2021/10/12 11:37:08;;;;;;;8.20;4.75;;;;;;;11.43;73.22;94467.41;4982086;28;20030;-84
2021/10/12 11:39:36;;;;;;;4.22;3.80;;;;;;;11.39;72.88;94461.13;4966157;28;20086;-84
2021/10/12 11:42:02;;;;;;;4.07;3.65;;;;;;;11.38;72.81;94464.75;4971308;28;20553;-85
2021/10/12 11:44:30;;;;;;;7.20;4.03;;;;;;;11.43;73.11;94462.22;4985932;28;20053;-84
2021/10/12 11:47:02;;;;;;;7.38;4.03;;;;;;;11.47;73.41;94461.72;4990612;28;20035;-84
2021/10/12 11:49:28;;;;;;;3.72;3.42;;;;;;;11.51;72.60;94463.56;4984391;28;20038;-84
2021/10/12 11:51:54;;;;;;;4.60;3.10;;;;;;;11.49;72.22;94454.44;4983201;28;20497;-83
2021/10/12 11:54:23;;;;;;;4.25;3.45;;;;;;;11.46;72.33;94455.72;4951613;28;20038;-83